首页
METAR-TAF:

METAR-TAF

机场 :

雅典, 喬治亞, 美国

纬度: 33-57-03N, 经度: 083-19-41W, 海拔: 246米

当前天气观测

该预报发布于13分钟前的05:24 UTC
静风
温度 7°C
湿度 93%
气压 1018 hPa
能見度: 4.0公里
少量云层高于200英尺
多云层高于3500英尺
阴天层高于5000英尺
小雨, 轻雾

METAR: KAHN 190524Z AUTO 00000KT 2 1/2SM -RA BR FEW002 BKN035 OVC050 07/06 A3007 RMK AO2 P0003 T00670056

时间: 00:37 (05:37 UTC)

预报

该预报发布于2小时和59分钟前的02:38 UTC
预报有效从19日的 03点(UTC)到 19日的 24点(UTC)
风速4节,风向北转东北
能見度: 9.7公里
阴天层高于2500英尺
小阵雨, 轻雾
短暂存在
从 19日的 03点(UTC)到 19日的 05点(UTC)
风速6节,风向东转东南
能見度: 3.2公里
多云层高于400英尺
阴天层高于1200英尺
阵雨, 轻雾
从 19日的 0500点(UTC)
风速12节,风向西转西北
能見度: 9.7公里
阴天层高于700英尺
轻雾
从 19日的 0900点(UTC)
风速13节,风向西北,有时为21节阵风
能見度: 10公里
多云层高于2000英尺
从 19日的 1100点(UTC)
风速13节,风向西北,有时为21节阵风
能見度: 10公里
多云层高于6000英尺
从 19日的 1500点(UTC)
风速16节,风向西北,有时为27节阵风
能見度: 10公里
散云层高于25000英尺
从 19日的 2200点(UTC)
风速12节,风向西北,有时为20节阵风
能見度: 10公里
天空无云

TAF: KAHN 190238Z 1903/1924 03004KT 6SM -SHRA BR OVC025 TEMPO 1903/1905 12006KT 2SM SHRA BR BKN004 OVC012 FM190500 30012KT 6SM BR OVC007 FM190900 31013G21KT P6SM BKN020 FM191100 31013G21KT P6SM BKN060 FM191500 32016G27KT P6SM SCT250 FM192200 32012G20KT P6SM SKC

超过4000个机场的气象观测和天气预报(METAR&TAF报告)。

可查询的气象台以黄色和红色小点在地图上表示。

将鼠标移到小点上方,可查看气象台名称。

然后点击查看天气观测和预报。

如需切换地图:点击带黑十字的绿色按钮放大地图;点击带横线的绿色按钮缩小地图;或者点击绿色箭头查看邻近地区的地图。


METAR-TAF: